Etusivu
METAR-TAF:

METAR-TAF

Lentoasemat :

Dzaoudzi, Mayotte

Leveyspiiri: 12-48S, Pituuspiiri: 045-17E, korkeus merenpinnasta: 8 m

Tämänhetkinen sää

Tämä raportti tehtiin 13 minuuttia sitten, kello 05.00 UTC
Tuuli 10 kn lounaasta
Lämpötila 27°C
Kosteus 74%
Ilmanpaine 1014 hPa
Näkyvyys 10 km tai enemmän
ei pilviä alle 1500 m:ssä eikä cumulonimbus-pilviä

METAR: FMCZ 150500Z AUTO 22010KT CAVOK 27/22 Q1014 NOSIG

Aika: 08:13 (05:13 UTC)

Sääennuste

Tämä raportti tehtiin 6 tuntia ja 13 minuuttia sitten, kello 23.00 UTC
Ennuste voimassa 15. päivästä klo 00 UTC - 15. päivään klo 24 UTC
Tuuli 6 kn lounaasta
Näkyvyys 10 km tai enemmän
Muutamia pilviä 2600 ft:n korkeudessa

TAF: FMCZ 142300Z 1500/1524 22006KT 9999 FEW026

Säähavainnot ja -ennusteet yli 4000 lentoasemalta (METAR- ja TAF-raportit).

Käytössä olevat sääasemat on merkitty karttaan keltaisilla ja punaisilla pisteillä.

Aseta hiiri pisteen päälle nähdäksesi sääaseman nimen.

Klikkaa sitten nähdäksesi säähavainnot ja -ennusteet.

Kartan vaihtaminen: klikkaa mustalla rastilla varustettuja vihreitä pisteitä, niin voit zoomata sisään; viivalla varustettua vihreää pistettä, niin voit zoomata ulos tai vihreitä nuolia, niin pääset viereisille kartoille.


METAR-TAF: